Terminal Aerodrome Forecast
Issued by NWS Birmingham, AL

Home | Current Version | Previous Version | Text Only | Print | Product List | Glossary On
Versions: 1 2 3 4 5 6 7 8 9 10 11 12 13 14 15 16 17 18 19 20
119
FTUS44 KBMX 010520
TAFBHM
TAF
KBHM 010520Z 0106/0206 19004KT P6SM SCT200
     FM010900 20007KT P6SM VCSH BKN015
     FM011500 19007KT P6SM SHRA VCTS BKN040CB=

USA.gov is the U.S. government's official web portal to all federal, state and local government web resources and services.